createdAt,value
2022-08-02T00:00:35.522Z,2.83
2022-08-02T00:03:03.655Z,2.80
2022-08-02T00:05:31.786Z,3.03
2022-08-02T00:07:59.947Z,3.47
2022-08-02T00:10:30.530Z,3.38
2022-08-02T00:12:58.861Z,3.22
2022-08-02T00:15:27.308Z,2.97
2022-08-02T00:17:56.675Z,2.97
2022-08-02T00:20:24.835Z,3.08
2022-08-02T00:22:53.046Z,3.50
2022-08-02T00:25:21.344Z,3.55
2022-08-02T00:27:50.889Z,3.13
2022-08-02T00:30:19.156Z,3.08
2022-08-02T00:32:47.305Z,2.95
2022-08-02T00:35:15.709Z,3.22
2022-08-02T00:37:44.086Z,3.05
2022-08-02T00:40:13.146Z,3.20
2022-08-02T00:42:41.584Z,3.10
2022-08-02T00:45:11.539Z,3.33
2022-08-02T00:47:39.687Z,3.22
2022-08-02T00:50:08.099Z,3.33
2022-08-02T00:52:36.232Z,3.38
2022-08-02T00:55:04.730Z,3.20
2022-08-02T00:57:32.956Z,3.88
2022-08-02T01:00:01.141Z,2.90
2022-08-02T01:02:30.685Z,3.63
2022-08-02T01:04:58.917Z,3.28
2022-08-02T01:07:28.097Z,3.42
2022-08-02T01:09:56.196Z,3.47
2022-08-02T01:12:24.321Z,3.10
2022-08-02T01:14:54.504Z,3.03
2022-08-02T01:17:30.282Z,3.20
2022-08-02T01:20:09.831Z,3.25
2022-08-02T01:23:02.401Z,3.30
2022-08-02T01:25:51.582Z,3.28
2022-08-02T01:28:37.698Z,3.28
2022-08-02T01:31:13.846Z,3.38
2022-08-02T01:33:46.930Z,3.22
2022-08-02T01:36:19.969Z,3.60
2022-08-02T01:38:51.357Z,3.20
2022-08-02T01:41:22.815Z,3.58
2022-08-02T01:43:56.945Z,3.33
2022-08-02T01:46:26.641Z,3.10
2022-08-02T01:48:57.562Z,3.42
2022-08-02T01:51:46.803Z,3.20
2022-08-02T01:54:18.762Z,3.30
2022-08-02T01:56:49.093Z,3.15
2022-08-02T01:59:22.076Z,3.22
2022-08-02T02:01:53.458Z,3.20
2022-08-02T02:04:23.233Z,3.58
2022-08-02T02:06:52.421Z,3.75
2022-08-02T02:09:23.167Z,3.33
2022-08-02T02:12:09.654Z,3.70
2022-08-02T02:14:51.411Z,3.80
2022-08-02T02:18:10.722Z,3.38
2022-08-02T02:20:14.473Z,3.75
2022-08-02T02:22:42.616Z,3.85
2022-08-02T02:25:12.808Z,3.28
2022-08-02T02:27:51.317Z,4.60
2022-08-02T02:30:21.133Z,3.67
2022-08-02T02:32:52.417Z,4.00
2022-08-02T02:35:22.821Z,4.00
2022-08-02T02:37:52.379Z,3.85
2022-08-02T02:40:21.929Z,3.50
2022-08-02T02:42:52.391Z,3.67
2022-08-02T02:45:23.175Z,3.45
2022-08-02T02:47:52.145Z,3.50
2022-08-02T02:50:21.787Z,3.80
2022-08-02T02:52:50.781Z,3.60
2022-08-02T02:55:19.658Z,3.90
2022-08-02T02:57:48.036Z,4.00
2022-08-02T03:00:17.096Z,3.78
2022-08-02T03:02:47.062Z,4.05
2022-08-02T03:05:17.182Z,3.63
2022-08-02T03:07:45.390Z,3.58
2022-08-02T03:10:13.662Z,3.80
2022-08-02T03:12:41.996Z,3.38
2022-08-02T03:15:15.266Z,3.83
2022-08-02T03:17:45.673Z,3.83
2022-08-02T03:20:16.705Z,4.25
2022-08-02T03:22:46.115Z,4.00
2022-08-02T03:25:15.985Z,3.47
2022-08-02T03:27:44.183Z,4.00
2022-08-02T03:30:14.082Z,3.85
2022-08-02T03:32:46.262Z,3.75
2022-08-02T03:35:23.370Z,3.88
2022-08-02T03:37:55.226Z,3.70
2022-08-02T03:40:24.382Z,3.67
2022-08-02T03:42:53.062Z,4.00
2022-08-02T03:45:21.670Z,4.00
2022-08-02T03:47:50.721Z,3.70
2022-08-02T03:50:22.981Z,4.07
2022-08-02T03:52:52.035Z,4.10
2022-08-02T03:55:20.266Z,3.67
2022-08-02T03:57:48.632Z,3.38
2022-08-02T04:00:20.303Z,3.58
2022-08-02T04:02:49.295Z,3.67
2022-08-02T04:05:17.624Z,3.60
2022-08-02T04:08:33.158Z,4.18
2022-08-02T04:10:56.857Z,3.92
2022-08-02T04:13:31.620Z,3.88
2022-08-02T04:16:04.983Z,3.65
2022-08-02T04:18:42.193Z,3.55
2022-08-02T04:21:14.926Z,3.90
2022-08-02T04:23:48.309Z,3.78
2022-08-02T04:26:17.958Z,3.53
2022-08-02T04:28:46.396Z,3.42
2022-08-02T04:31:15.677Z,3.78
2022-08-02T04:33:44.208Z,3.65
2022-08-02T04:36:14.227Z,3.67
2022-08-02T04:38:44.409Z,3.65
2022-08-02T04:41:14.267Z,4.13
2022-08-02T04:43:42.361Z,3.63
2022-08-02T04:46:10.565Z,7.45
2022-08-02T04:48:38.780Z,8.70
2022-08-02T04:51:07.045Z,7.32
2022-08-02T04:53:35.219Z,9.48
2022-08-02T04:56:05.075Z,4.05
2022-08-02T04:58:40.975Z,4.53
2022-08-02T05:01:09.368Z,3.33
2022-08-02T05:03:37.780Z,4.50
2022-08-02T05:06:18.666Z,4.10
2022-08-02T05:08:52.457Z,3.72
2022-08-02T05:11:34.385Z,4.13
2022-08-02T05:14:04.426Z,3.58
2022-08-02T05:16:32.683Z,3.15
2022-08-02T05:19:01.988Z,19.27
2022-08-02T05:21:31.769Z,4.50
2022-08-02T05:24:00.219Z,4.45
2022-08-02T05:26:29.967Z,3.95
2022-08-02T05:28:58.135Z,3.83
2022-08-02T05:31:26.370Z,3.75
2022-08-02T05:33:54.511Z,4.57
2022-08-02T05:36:22.779Z,4.65
2022-08-02T05:38:52.949Z,5.30
2022-08-02T05:41:29.319Z,3.88
2022-08-02T05:43:57.457Z,4.03
2022-08-02T05:46:26.067Z,3.40
2022-08-02T05:48:54.266Z,4.20
2022-08-02T05:51:25.468Z,3.72
2022-08-02T05:53:57.781Z,4.30
2022-08-02T05:56:36.340Z,3.55
2022-08-02T05:59:05.875Z,6.20
2022-08-02T06:01:37.879Z,3.47
2022-08-02T06:04:08.293Z,3.67
2022-08-02T06:06:37.793Z,3.65
2022-08-02T06:09:10.895Z,3.92
2022-08-02T06:12:01.817Z,4.50
2022-08-02T06:14:33.216Z,8.23
2022-08-02T06:17:04.928Z,5.93
2022-08-02T06:19:36.585Z,3.47
2022-08-02T06:22:33.858Z,3.42
2022-08-02T06:25:11.737Z,3.17
2022-08-02T06:27:59.631Z,3.03
2022-08-02T06:30:28.367Z,3.20
2022-08-02T06:32:57.242Z,6.32
2022-08-02T06:35:32.987Z,5.90
2022-08-02T06:38:02.869Z,4.63
2022-08-02T06:40:33.816Z,3.88
2022-08-02T06:43:12.208Z,3.00
2022-08-02T06:45:41.262Z,2.63
2022-08-02T06:48:10.279Z,3.17
2022-08-02T06:50:39.810Z,3.15
2022-08-02T06:53:08.352Z,3.00
2022-08-02T06:55:43.946Z,2.92
2022-08-02T06:58:14.287Z,3.20
2022-08-02T07:00:43.763Z,5.85
2022-08-02T07:03:12.215Z,3.00
2022-08-02T07:05:41.631Z,2.70
2022-08-02T07:08:09.827Z,2.80
2022-08-02T07:10:37.922Z,2.47
2022-08-02T07:13:07.371Z,2.60
2022-08-02T07:15:37.845Z,2.38
2022-08-02T07:18:06.653Z,3.05
2022-08-02T07:20:36.243Z,2.75
2022-08-02T07:23:04.458Z,3.03
2022-08-02T07:26:03.048Z,2.90
2022-08-02T07:28:24.281Z,3.22
2022-08-02T07:30:54.342Z,3.95
2022-08-02T07:33:38.468Z,2.95
2022-08-02T07:36:09.731Z,2.60
2022-08-02T07:38:45.595Z,2.60
2022-08-02T07:41:13.889Z,2.80
2022-08-02T07:43:42.135Z,2.60
2022-08-02T07:46:11.652Z,2.65
2022-08-02T07:48:39.853Z,3.08
2022-08-02T07:51:08.052Z,2.38
2022-08-02T07:53:50.961Z,2.60
2022-08-02T07:56:24.377Z,3.30
2022-08-02T07:58:52.504Z,3.45
2022-08-02T08:01:22.311Z,3.13
2022-08-02T08:03:50.604Z,2.95
2022-08-02T08:06:18.719Z,2.78
2022-08-02T08:08:56.892Z,2.88
2022-08-02T08:11:25.112Z,2.70
2022-08-02T08:13:53.359Z,2.80
2022-08-02T08:16:22.950Z,3.08
2022-08-02T08:18:51.298Z,3.50
2022-08-02T08:21:19.464Z,2.88
2022-08-02T08:23:47.742Z,3.15
2022-08-02T08:26:16.707Z,2.97
2022-08-02T08:28:44.797Z,2.90
2022-08-02T08:31:12.948Z,2.40
2022-08-02T08:33:42.580Z,3.30
2022-08-02T08:36:10.777Z,2.72
2022-08-02T08:38:38.908Z,2.80
2022-08-02T08:41:08.391Z,2.60
2022-08-02T08:43:36.657Z,2.38
2022-08-02T08:46:06.161Z,2.60
2022-08-02T08:48:37.239Z,2.63
2022-08-02T08:51:12.929Z,3.00
2022-08-02T08:53:45.486Z,3.65
2022-08-02T08:56:16.464Z,5.80
2022-08-02T08:58:48.520Z,3.42
2022-08-02T09:01:17.244Z,5.00
2022-08-02T09:03:46.474Z,3.67
2022-08-02T09:06:17.986Z,3.13
2022-08-02T09:08:46.491Z,2.63
2022-08-02T09:11:16.660Z,2.42
2022-08-02T09:13:52.243Z,2.38
2022-08-02T09:16:31.254Z,9.32
2022-08-02T09:18:59.735Z,3.05
2022-08-02T09:21:41.573Z,2.45
2022-08-02T09:24:18.317Z,2.53
2022-08-02T09:26:47.251Z,2.58
2022-08-02T09:29:16.140Z,6.05
2022-08-02T09:31:49.839Z,8.05
2022-08-02T09:34:19.870Z,4.25
2022-08-02T09:36:54.542Z,3.30
2022-08-02T09:39:23.917Z,2.85
2022-08-02T09:41:52.100Z,2.80
2022-08-02T09:44:20.616Z,2.75
2022-08-02T09:46:48.866Z,2.60
2022-08-02T09:49:18.244Z,2.35
2022-08-02T09:51:53.692Z,4.80
2022-08-02T09:54:24.474Z,2.80
2022-08-02T09:57:00.552Z,3.45
2022-08-02T09:59:31.137Z,2.70
2022-08-02T10:02:17.162Z,2.17
2022-08-02T10:04:52.734Z,2.20
2022-08-02T10:07:26.735Z,2.70
2022-08-02T10:09:56.070Z,2.15
2022-08-02T10:12:24.851Z,1.80
2022-08-02T10:14:56.185Z,1.98
2022-08-02T10:17:25.396Z,1.63
2022-08-02T10:20:03.381Z,1.70
2022-08-02T10:22:38.941Z,1.77
2022-08-02T10:25:11.596Z,1.65
2022-08-02T10:28:04.258Z,1.60
2022-08-02T10:30:30.610Z,1.60
2022-08-02T10:33:01.058Z,1.95
2022-08-02T10:35:32.409Z,1.52
2022-08-02T10:38:08.135Z,1.58
2022-08-02T10:40:48.152Z,1.90
2022-08-02T10:43:47.534Z,1.60
2022-08-02T10:46:32.556Z,1.65
2022-08-02T10:52:11.367Z,1.60
2022-08-02T10:54:42.639Z,1.88
2022-08-02T10:57:19.718Z,2.10
2022-08-02T10:59:48.784Z,7.15
2022-08-02T11:02:40.880Z,2.22
2022-08-02T11:05:16.509Z,1.75
2022-08-02T11:07:49.265Z,2.17
2022-08-02T11:10:42.010Z,1.52
2022-08-02T11:13:15.946Z,1.67
2022-08-02T11:16:06.453Z,1.63
2022-08-02T11:19:06.625Z,1.60
2022-08-02T11:21:40.287Z,1.80
2022-08-02T11:24:33.299Z,1.80
2022-08-02T11:27:03.934Z,1.85
2022-08-02T11:29:38.339Z,1.50
2022-08-02T11:32:07.703Z,1.73
2022-08-02T11:34:37.374Z,1.67
2022-08-02T11:37:07.695Z,1.75
2022-08-02T11:39:35.827Z,1.70
2022-08-02T11:42:06.129Z,1.70
2022-08-02T11:44:43.479Z,1.80
2022-08-02T11:47:14.464Z,1.88
2022-08-02T11:49:44.863Z,2.15
2022-08-02T11:54:44.916Z,1.50
2022-08-02T11:57:20.264Z,1.80
2022-08-02T11:59:51.133Z,1.70
2022-08-02T12:02:20.174Z,1.70
2022-08-02T12:04:58.385Z,1.60
2022-08-02T12:07:34.507Z,1.95
2022-08-02T12:10:05.861Z,1.77
2022-08-02T12:12:35.593Z,1.42
2022-08-02T12:15:06.463Z,1.67
2022-08-02T12:17:52.199Z,1.50
2022-08-02T12:20:22.698Z,1.63
2022-08-02T12:22:52.250Z,1.70
2022-08-02T12:25:34.554Z,1.52
2022-08-02T12:28:18.737Z,1.52
2022-08-02T12:30:58.105Z,1.55
2022-08-02T12:33:28.949Z,2.60
2022-08-02T12:35:57.430Z,6.10
2022-08-02T12:38:27.820Z,1.60
2022-08-02T12:40:56.153Z,1.90
2022-08-02T12:43:26.173Z,1.60
2022-08-02T12:45:56.644Z,1.73
2022-08-02T12:48:38.294Z,1.45
2022-08-02T12:51:22.834Z,1.40
2022-08-02T12:53:59.920Z,1.40
2022-08-02T12:56:30.993Z,1.67
2022-08-02T12:59:01.171Z,3.13
2022-08-02T13:01:30.396Z,2.58
2022-08-02T13:04:11.579Z,1.73
2022-08-02T13:06:44.596Z,1.90
2022-08-02T13:09:16.398Z,1.50
2022-08-02T13:11:44.980Z,1.52
2022-08-02T13:14:15.111Z,2.80
2022-08-02T13:16:46.018Z,6.75
2022-08-02T13:19:15.680Z,1.90
2022-08-02T13:22:02.008Z,1.52
2022-08-02T13:24:39.673Z,1.20
2022-08-02T13:27:10.205Z,1.10
2022-08-02T13:29:40.156Z,1.98
2022-08-02T13:32:08.424Z,1.25
2022-08-02T13:34:37.028Z,1.02
2022-08-02T13:37:05.647Z,1.90
2022-08-02T13:39:33.932Z,2.97
2022-08-02T13:42:02.047Z,4.05
2022-08-02T13:44:30.195Z,1.67
2022-08-02T13:46:59.795Z,1.38
2022-08-02T13:49:50.130Z,1.05
2022-08-02T13:52:16.537Z,0.90
2022-08-02T13:54:44.997Z,1.00
2022-08-02T13:57:13.580Z,1.50
2022-08-02T13:59:56.654Z,2.25
2022-08-02T14:02:29.144Z,1.13
2022-08-02T14:04:57.991Z,1.00
2022-08-02T14:07:26.140Z,0.80
2022-08-02T14:09:57.321Z,0.80
2022-08-02T14:12:27.257Z,0.70
2022-08-02T14:14:55.395Z,2.00
2022-08-02T14:17:23.696Z,1.00
2022-08-02T14:19:53.340Z,0.70
2022-08-02T14:22:21.635Z,1.50
2022-08-02T14:24:49.963Z,2.50
2022-08-02T14:27:18.152Z,0.60
2022-08-02T14:29:47.992Z,1.35
2022-08-02T14:32:19.144Z,1.00
2022-08-02T14:34:47.274Z,0.98
2022-08-02T14:37:18.695Z,1.10
2022-08-02T14:40:00.351Z,0.90
2022-08-02T14:42:29.305Z,0.70
2022-08-02T14:44:57.708Z,0.65
2022-08-02T14:47:25.911Z,0.40
2022-08-02T14:49:57.254Z,0.50
2022-08-02T14:52:26.880Z,0.80
2022-08-02T14:54:55.856Z,0.80
2022-08-02T14:57:24.230Z,0.57
2022-08-02T14:59:54.167Z,0.60
2022-08-02T15:02:22.376Z,0.60
2022-08-02T15:04:50.550Z,0.63
2022-08-02T15:07:20.040Z,0.60
2022-08-02T15:09:49.699Z,0.60
2022-08-02T15:12:18.303Z,0.73
2022-08-02T15:14:46.646Z,0.93
2022-08-02T15:17:14.878Z,0.60
2022-08-02T15:19:59.539Z,0.70
2022-08-02T15:22:28.797Z,0.60
2022-08-02T15:25:00.569Z,0.60
2022-08-02T15:27:28.757Z,0.73
2022-08-02T15:30:00.506Z,0.70
2022-08-02T15:32:29.353Z,0.70
2022-08-02T15:34:57.503Z,0.70
2022-08-02T15:37:26.088Z,0.80
2022-08-02T15:40:01.303Z,0.75
2022-08-02T15:42:30.213Z,0.70
2022-08-02T15:45:00.209Z,1.38
2022-08-02T15:47:28.479Z,0.80
2022-08-02T15:49:56.874Z,0.80
2022-08-02T15:52:29.250Z,1.00
2022-08-02T15:55:06.968Z,0.70
2022-08-02T15:57:36.398Z,0.90
2022-08-02T16:00:06.198Z,0.98
2022-08-02T16:02:47.587Z,0.80
2022-08-02T16:05:17.899Z,0.80
2022-08-02T16:07:46.632Z,0.88
2022-08-02T16:10:17.572Z,0.90
2022-08-02T16:12:45.834Z,0.93
2022-08-02T16:15:14.361Z,0.90
2022-08-02T16:17:51.293Z,0.80
2022-08-02T16:20:23.601Z,0.98
2022-08-02T16:22:51.899Z,1.00
2022-08-02T16:25:21.466Z,1.02
2022-08-02T16:28:00.179Z,0.80
2022-08-02T16:30:35.007Z,1.00
2022-08-02T16:33:03.290Z,0.70
2022-08-02T16:35:31.390Z,0.88
2022-08-02T16:37:59.590Z,1.10
2022-08-02T16:40:29.234Z,1.00
2022-08-02T16:42:57.542Z,1.00
2022-08-02T16:45:28.463Z,0.90
2022-08-02T16:48:03.798Z,1.20
2022-08-02T16:55:53.284Z,1.00
2022-08-02T16:58:21.443Z,1.30
2022-08-02T17:00:49.702Z,1.10
2022-08-02T17:03:18.767Z,1.30
2022-08-02T17:05:56.736Z,1.20
2022-08-02T17:08:31.734Z,1.00
2022-08-02T17:11:03.659Z,1.10
2022-08-02T17:13:37.922Z,1.08
2022-08-02T17:16:25.666Z,1.20
2022-08-02T17:18:55.492Z,1.00
2022-08-02T17:21:23.900Z,1.67
2022-08-02T17:24:08.400Z,1.20
2022-08-02T17:26:39.117Z,1.20
2022-08-02T17:29:14.291Z,3.45
2022-08-02T17:32:05.714Z,1.20
2022-08-02T17:34:37.850Z,1.50
2022-08-02T17:37:06.811Z,1.30
2022-08-02T17:39:43.911Z,1.38
2022-08-02T17:42:24.098Z,1.27
2022-08-02T17:44:54.115Z,1.20
2022-08-02T17:47:22.448Z,1.30
2022-08-02T17:49:52.584Z,1.23
2022-08-02T17:52:51.432Z,1.20
2022-08-02T17:55:13.681Z,1.58
2022-08-02T17:57:57.044Z,1.83
2022-08-02T18:00:33.782Z,1.55
2022-08-02T18:03:06.146Z,1.75
2022-08-02T18:05:40.055Z,1.60
2022-08-02T18:08:25.715Z,1.70
2022-08-02T18:10:54.414Z,1.73
2022-08-02T18:13:24.562Z,1.67
2022-08-02T18:15:57.337Z,1.63
2022-08-02T18:21:22.543Z,2.33
2022-08-02T18:23:58.746Z,1.63
2022-08-02T18:26:28.738Z,1.40
2022-08-02T18:28:59.673Z,1.90
2022-08-02T18:31:28.121Z,1.60
2022-08-02T18:34:02.017Z,1.58
2022-08-02T18:36:31.441Z,2.38
2022-08-02T18:39:00.359Z,2.03
2022-08-02T18:41:38.122Z,1.40
2022-08-02T18:44:07.965Z,0.90
2022-08-02T18:46:37.114Z,0.90
2022-08-02T18:49:14.803Z,1.20
2022-08-02T18:51:55.421Z,1.83
2022-08-02T18:54:26.709Z,1.75
2022-08-02T18:57:00.797Z,1.00
2022-08-02T18:59:37.456Z,1.02
2022-08-02T19:04:34.225Z,0.82
2022-08-02T19:07:07.688Z,0.73
2022-08-02T19:09:40.179Z,0.98
2022-08-02T19:12:11.604Z,0.90
2022-08-02T19:14:42.124Z,0.70
2022-08-02T19:17:15.753Z,0.50
2022-08-02T19:19:58.824Z,0.82
2022-08-02T19:22:27.695Z,0.85
2022-08-02T19:24:59.896Z,0.80
2022-08-02T19:27:32.604Z,0.90
2022-08-02T19:30:03.609Z,1.00
2022-08-02T19:32:42.506Z,0.90
2022-08-02T19:35:30.935Z,1.05
2022-08-02T19:38:09.328Z,0.88
2022-08-02T19:40:38.790Z,0.90
2022-08-02T19:44:24.211Z,1.05
2022-08-02T19:45:57.492Z,0.80
2022-08-02T19:48:28.139Z,0.90
2022-08-02T19:51:00.826Z,0.90
2022-08-02T19:56:20.870Z,1.05
2022-08-02T19:58:51.195Z,0.95
2022-08-02T20:01:28.425Z,0.88
2022-08-02T20:04:13.338Z,1.00
2022-08-02T20:06:45.370Z,0.88
2022-08-02T20:09:16.687Z,0.80
2022-08-02T20:11:54.079Z,0.95
2022-08-02T20:14:26.639Z,0.88
2022-08-02T20:16:57.544Z,2.63
2022-08-02T20:19:29.086Z,1.00
2022-08-02T20:21:59.502Z,1.10
2022-08-02T20:24:29.683Z,1.05
2022-08-02T20:26:59.295Z,1.10
2022-08-02T20:29:43.114Z,1.02
2022-08-02T20:32:22.865Z,1.20
2022-08-02T20:34:52.700Z,1.27
2022-08-02T20:37:59.422Z,1.30
2022-08-02T20:40:16.694Z,1.05
2022-08-02T20:42:47.994Z,1.63
2022-08-02T20:45:16.479Z,1.67
2022-08-02T20:47:50.895Z,1.48
2022-08-02T20:50:38.742Z,1.30
2022-08-02T20:53:24.220Z,1.38
2022-08-02T20:55:56.207Z,1.33
2022-08-02T20:58:27.006Z,1.30
2022-08-02T21:00:59.292Z,1.27
2022-08-02T21:03:38.845Z,1.73
2022-08-02T21:06:08.967Z,1.50
2022-08-02T21:08:38.412Z,1.35
2022-08-02T21:11:09.329Z,1.42
2022-08-02T21:13:46.499Z,1.30
2022-08-02T21:16:19.287Z,1.38
2022-08-02T21:18:55.811Z,1.30
2022-08-02T21:21:29.750Z,1.40
2022-08-02T21:23:58.854Z,1.48
2022-08-02T21:26:31.118Z,1.63
2022-08-02T21:29:03.563Z,1.58
2022-08-02T21:31:33.404Z,1.42
2022-08-02T21:34:27.391Z,1.50
2022-08-02T21:36:56.147Z,1.40
2022-08-02T21:39:24.635Z,1.45
2022-08-02T21:41:53.159Z,1.38
2022-08-02T21:44:22.842Z,1.50
2022-08-02T21:46:52.433Z,1.45
2022-08-02T21:49:40.733Z,1.58
2022-08-02T21:52:11.357Z,1.40
2022-08-02T21:54:41.006Z,1.60
2022-08-02T21:57:15.144Z,1.50
2022-08-02T21:59:45.253Z,1.50
2022-08-02T22:02:14.031Z,1.73
2022-08-02T22:04:47.797Z,1.55
2022-08-02T22:07:23.840Z,1.50
2022-08-02T22:10:09.063Z,1.50
2022-08-02T22:12:38.091Z,1.52
2022-08-02T22:15:10.242Z,1.30
2022-08-02T22:17:51.687Z,1.50
2022-08-02T22:20:23.494Z,1.48
2022-08-02T22:22:52.689Z,1.70
2022-08-02T22:25:36.590Z,2.00
2022-08-02T22:28:38.342Z,1.58
2022-08-02T22:30:57.223Z,1.52
2022-08-02T22:33:47.144Z,1.70
2022-08-02T22:36:30.559Z,1.85
2022-08-02T22:38:59.117Z,1.88
2022-08-02T22:42:01.444Z,2.00
2022-08-02T22:44:18.537Z,1.80
2022-08-02T22:46:49.886Z,1.75
2022-08-02T22:52:07.865Z,1.92
2022-08-02T22:54:36.242Z,1.60
2022-08-02T22:57:06.375Z,1.65
2022-08-02T22:58:35.329Z,1.00
2022-08-02T22:58:43.670Z,1.60
2022-08-02T22:59:09.878Z,1.80
2022-08-02T22:59:39.380Z,2.00
2022-08-02T23:02:08.528Z,1.70
2022-08-02T23:04:37.137Z,1.90
2022-08-02T23:07:05.592Z,2.00
2022-08-02T23:09:35.162Z,1.95
2022-08-02T23:12:03.303Z,1.70
2022-08-02T23:14:31.465Z,1.70
2022-08-02T23:17:17.044Z,1.77
2022-08-02T23:19:54.440Z,1.70
2022-08-02T23:22:29.821Z,1.77
2022-08-02T23:25:02.813Z,1.58
2022-08-02T23:27:31.341Z,1.52
2022-08-02T23:30:00.283Z,1.52
2022-08-02T23:32:29.130Z,1.70
2022-08-02T23:34:58.580Z,1.90
2022-08-02T23:37:26.797Z,1.70
2022-08-02T23:39:55.320Z,2.15
2022-08-02T23:42:25.489Z,1.95
2022-08-02T23:44:53.895Z,2.05
2022-08-02T23:47:22.270Z,2.10
2022-08-02T23:49:50.436Z,2.25
2022-08-02T23:52:19.022Z,1.80
2022-08-02T23:54:47.276Z,2.28
2022-08-02T23:57:20.510Z,2.38
2022-08-02T23:59:52.009Z,2.55
